createdAt,value
2023-05-11T00:00:15.919Z,54.70
2023-05-11T00:02:43.237Z,46.63
2023-05-11T00:05:09.977Z,52.40
2023-05-11T00:07:36.535Z,42.22
2023-05-11T00:10:03.011Z,56.50
2023-05-11T00:12:29.461Z,51.55
2023-05-11T00:14:56.112Z,57.55
2023-05-11T00:17:22.760Z,54.55
2023-05-11T00:19:49.494Z,54.08
2023-05-11T00:22:16.210Z,57.92
2023-05-11T00:24:42.721Z,58.33
2023-05-11T00:27:09.193Z,57.35
2023-05-11T00:29:35.800Z,51.08
2023-05-11T00:32:02.319Z,45.35
2023-05-11T00:34:28.794Z,52.63
2023-05-11T00:36:55.254Z,53.83
2023-05-11T00:39:21.765Z,50.88
2023-05-11T00:41:48.214Z,52.60
2023-05-11T00:44:14.768Z,50.13
2023-05-11T00:46:41.957Z,47.80
2023-05-11T00:49:09.592Z,48.65
2023-05-11T00:51:36.276Z,52.25
2023-05-11T00:54:02.794Z,50.92
2023-05-11T00:56:29.441Z,49.90
2023-05-11T00:58:55.923Z,50.30
2023-05-11T01:01:22.604Z,48.45
2023-05-11T01:03:49.691Z,51.05
2023-05-11T01:06:27.694Z,52.47
2023-05-11T01:09:21.381Z,49.50
2023-05-11T01:12:00.713Z,53.58
2023-05-11T01:14:29.703Z,58.33
2023-05-11T01:17:03.495Z,57.33
2023-05-11T01:19:47.554Z,55.90
2023-05-11T01:22:28.861Z,59.30
2023-05-11T01:25:21.188Z,53.75
2023-05-11T01:28:23.228Z,49.15
2023-05-11T01:30:57.766Z,44.83
2023-05-11T01:33:34.079Z,55.83
2023-05-11T01:36:05.581Z,59.90
2023-05-11T01:38:35.386Z,57.47
2023-05-11T01:41:09.908Z,55.97
2023-05-11T01:43:38.020Z,51.77
2023-05-11T01:46:06.745Z,51.33
2023-05-11T01:48:38.079Z,55.70
2023-05-11T01:51:05.691Z,59.33
2023-05-11T01:53:35.403Z,60.60
2023-05-11T01:56:02.992Z,59.53
2023-05-11T01:58:31.009Z,59.90
2023-05-11T02:01:00.213Z,71.13
2023-05-11T02:03:29.548Z,62.97
2023-05-11T02:05:58.345Z,70.97
2023-05-11T02:08:27.165Z,72.50
2023-05-11T02:10:54.855Z,67.65
2023-05-11T02:13:22.845Z,70.10
2023-05-11T02:15:52.006Z,78.50
2023-05-11T02:18:20.646Z,81.40
2023-05-11T02:20:48.165Z,76.97
2023-05-11T02:23:14.971Z,77.55
2023-05-11T02:25:43.154Z,78.93
2023-05-11T02:28:09.775Z,71.45
2023-05-11T02:30:44.549Z,71.03
2023-05-11T02:33:14.504Z,73.25
2023-05-11T02:35:43.536Z,83.38
2023-05-11T02:38:12.542Z,76.88
2023-05-11T02:40:49.087Z,75.47
2023-05-11T02:43:21.871Z,75.30
2023-05-11T02:45:52.505Z,82.25
2023-05-11T02:48:23.846Z,75.53
2023-05-11T02:50:52.353Z,78.85
2023-05-11T02:53:21.861Z,73.25
2023-05-11T02:55:50.575Z,72.40
2023-05-11T02:58:18.610Z,71.97
2023-05-11T03:00:45.805Z,77.65
2023-05-11T03:03:12.868Z,69.10
2023-05-11T03:05:39.844Z,78.88
2023-05-11T03:08:06.456Z,79.93
2023-05-11T03:10:33.284Z,81.95
2023-05-11T03:13:00.391Z,86.70
2023-05-11T03:15:27.838Z,84.03
2023-05-11T03:17:56.070Z,85.85
2023-05-11T03:20:23.721Z,88.18
2023-05-11T03:22:51.994Z,86.32
2023-05-11T03:25:20.126Z,78.95
2023-05-11T03:27:47.351Z,83.70
2023-05-11T03:30:15.707Z,81.25
2023-05-11T03:32:42.424Z,77.70
2023-05-11T03:35:09.480Z,76.05
2023-05-11T03:37:38.205Z,83.95
2023-05-11T03:40:07.726Z,69.88
2023-05-11T03:42:36.304Z,77.85
2023-05-11T03:45:03.251Z,79.25
2023-05-11T03:47:32.552Z,60.08
2023-05-11T03:49:59.811Z,80.30
2023-05-11T03:52:26.612Z,87.82
2023-05-11T03:54:53.430Z,88.35
2023-05-11T03:57:19.966Z,89.88
2023-05-11T03:59:46.505Z,99.15
2023-05-11T04:02:13.202Z,97.85
2023-05-11T04:04:39.702Z,105.78
2023-05-11T04:07:06.320Z,96.18
2023-05-11T04:09:32.817Z,96.72
2023-05-11T04:11:59.514Z,100.35
2023-05-11T04:14:25.951Z,96.35
2023-05-11T04:16:52.510Z,95.93
2023-05-11T04:19:19.259Z,100.00
2023-05-11T04:21:46.742Z,92.25
2023-05-11T04:24:13.195Z,96.18
2023-05-11T04:26:39.638Z,92.85
2023-05-11T04:29:06.153Z,97.82
2023-05-11T04:31:32.723Z,92.63
2023-05-11T04:33:59.281Z,93.05
2023-05-11T04:36:26.068Z,75.45
2023-05-11T04:38:53.231Z,71.05
2023-05-11T04:41:19.805Z,59.20
2023-05-11T04:43:46.238Z,52.13
2023-05-11T04:46:12.709Z,49.55
2023-05-11T04:48:39.173Z,49.38
2023-05-11T04:51:06.797Z,44.15
2023-05-11T04:53:33.314Z,39.38
2023-05-11T04:55:59.817Z,44.55
2023-05-11T04:58:26.289Z,39.40
2023-05-11T05:00:52.758Z,37.58
2023-05-11T05:03:19.326Z,33.88
2023-05-11T05:05:45.813Z,35.33
2023-05-11T05:08:12.272Z,33.90
2023-05-11T05:10:38.746Z,35.80
2023-05-11T05:13:05.352Z,34.78
2023-05-11T05:15:31.857Z,38.13
2023-05-11T05:17:58.380Z,35.55
2023-05-11T05:20:24.949Z,36.55
2023-05-11T05:22:51.903Z,36.00
2023-05-11T05:25:18.631Z,36.13
2023-05-11T05:27:45.314Z,32.15
2023-05-11T05:30:12.064Z,36.22
2023-05-11T05:32:38.601Z,33.60
2023-05-11T05:35:05.815Z,37.35
2023-05-11T05:37:32.293Z,35.63
2023-05-11T05:39:58.755Z,32.55
2023-05-11T05:42:25.306Z,30.13
2023-05-11T05:44:52.273Z,34.38
2023-05-11T05:47:18.692Z,31.95
2023-05-11T05:49:45.255Z,34.38
2023-05-11T05:52:11.945Z,28.13
2023-05-11T05:54:38.510Z,27.35
2023-05-11T05:57:04.978Z,27.35
2023-05-11T05:59:31.414Z,30.75
2023-05-11T06:01:57.963Z,28.85
2023-05-11T06:04:24.485Z,29.13
2023-05-11T06:06:51.179Z,34.72
2023-05-11T06:09:17.680Z,35.97
2023-05-11T06:11:44.139Z,35.78
2023-05-11T06:14:10.744Z,29.98
2023-05-11T06:16:40.167Z,36.50
2023-05-11T06:19:08.296Z,42.90
2023-05-11T06:21:34.791Z,25.40
2023-05-11T06:24:01.276Z,42.53
2023-05-11T06:26:28.580Z,43.35
2023-05-11T06:28:55.096Z,44.55
2023-05-11T06:31:23.177Z,28.13
2023-05-11T06:33:50.296Z,32.22
2023-05-11T06:36:16.799Z,37.65
2023-05-11T06:38:43.278Z,42.08
2023-05-11T06:41:11.465Z,21.10
2023-05-11T06:43:38.402Z,28.90
2023-05-11T06:46:05.119Z,36.83
2023-05-11T06:48:31.667Z,45.40
2023-05-11T06:50:58.226Z,48.80
2023-05-11T06:53:24.739Z,47.08
2023-05-11T06:55:51.631Z,44.45
2023-05-11T06:58:20.624Z,30.67
2023-05-11T07:00:47.434Z,50.70
2023-05-11T07:03:13.981Z,45.78
2023-05-11T07:05:40.624Z,47.67
2023-05-11T07:08:07.262Z,49.97
2023-05-11T07:10:33.820Z,26.98
2023-05-11T07:13:00.281Z,43.83
2023-05-11T07:15:26.744Z,41.90
2023-05-11T07:17:53.566Z,41.40
2023-05-11T07:20:20.426Z,38.55
2023-05-11T07:22:47.086Z,38.17
2023-05-11T07:25:13.701Z,40.83
2023-05-11T07:27:40.183Z,46.72
2023-05-11T07:30:07.148Z,38.03
2023-05-11T07:32:33.903Z,42.67
2023-05-11T07:35:00.453Z,37.72
2023-05-11T07:37:26.967Z,37.38
2023-05-11T07:39:54.259Z,39.45
2023-05-11T07:42:20.749Z,33.80
2023-05-11T07:44:47.225Z,33.75
2023-05-11T07:47:15.264Z,39.03
2023-05-11T07:49:44.122Z,34.42
2023-05-11T07:52:11.652Z,30.23
2023-05-11T07:54:38.831Z,31.10
2023-05-11T07:57:05.876Z,29.50
2023-05-11T07:59:32.595Z,28.60
2023-05-11T08:01:59.499Z,28.00
2023-05-11T08:04:27.166Z,29.88
2023-05-11T08:06:53.861Z,27.02
2023-05-11T08:09:20.321Z,26.15
2023-05-11T08:11:46.834Z,26.95
2023-05-11T08:14:13.571Z,27.10
2023-05-11T08:16:40.227Z,27.25
2023-05-11T08:19:06.821Z,29.65
2023-05-11T08:21:33.315Z,25.00
2023-05-11T08:23:59.781Z,25.85
2023-05-11T08:26:26.258Z,24.13
2023-05-11T08:28:52.825Z,25.48
2023-05-11T08:31:19.335Z,31.98
2023-05-11T08:33:45.947Z,30.23
2023-05-11T08:36:15.714Z,26.25
2023-05-11T08:38:42.405Z,23.45
2023-05-11T08:41:12.359Z,24.63
2023-05-11T08:43:40.694Z,22.67
2023-05-11T08:46:08.828Z,24.52
2023-05-11T08:48:35.959Z,22.83
2023-05-11T08:51:04.319Z,26.30
2023-05-11T08:53:30.913Z,22.40
2023-05-11T08:55:59.755Z,24.17
2023-05-11T08:58:27.582Z,23.27
2023-05-11T09:00:54.543Z,24.42
2023-05-11T09:03:22.441Z,21.50
2023-05-11T09:05:50.131Z,23.92
2023-05-11T09:08:18.944Z,24.25
2023-05-11T09:10:45.966Z,24.15
2023-05-11T09:13:12.800Z,22.23
2023-05-11T09:15:39.480Z,23.23
2023-05-11T09:18:06.312Z,19.05
2023-05-11T09:20:34.714Z,19.52
2023-05-11T09:23:01.528Z,16.17
2023-05-11T09:25:33.562Z,16.23
2023-05-11T09:28:00.826Z,14.50
2023-05-11T09:30:27.649Z,17.15
2023-05-11T09:33:02.261Z,16.63
2023-05-11T09:35:33.967Z,16.67
2023-05-11T09:38:07.820Z,18.35
2023-05-11T09:40:36.166Z,17.83
2023-05-11T09:43:20.569Z,15.88
2023-05-11T09:45:49.799Z,18.30
2023-05-11T09:48:18.969Z,16.92
2023-05-11T09:50:46.627Z,18.17
2023-05-11T09:53:15.927Z,17.65
2023-05-11T09:55:53.465Z,18.38
2023-05-11T09:58:19.938Z,20.02
2023-05-11T10:00:51.251Z,24.48
2023-05-11T10:03:18.646Z,25.52
2023-05-11T10:05:59.683Z,22.35
2023-05-11T10:08:31.150Z,22.90
2023-05-11T10:10:58.284Z,24.35
2023-05-11T10:13:24.879Z,26.70
2023-05-11T10:15:52.551Z,24.77
2023-05-11T10:18:20.329Z,25.52
2023-05-11T10:20:47.671Z,22.77
2023-05-11T10:23:15.109Z,21.23
2023-05-11T10:25:42.481Z,24.02
2023-05-11T10:28:09.544Z,26.13
2023-05-11T10:30:37.232Z,22.52
2023-05-11T10:33:05.169Z,23.50
2023-05-11T10:35:32.617Z,21.40
2023-05-11T10:38:01.009Z,22.70
2023-05-11T10:40:28.064Z,24.40
2023-05-11T10:43:17.846Z,22.75
2023-05-11T10:45:57.934Z,25.80
2023-05-11T10:48:33.075Z,23.67
2023-05-11T10:51:34.172Z,28.48
2023-05-11T10:54:07.463Z,23.23
2023-05-11T10:56:53.023Z,21.92
2023-05-11T11:02:09.029Z,22.30
2023-05-11T11:04:50.510Z,23.73
2023-05-11T11:07:19.469Z,21.08
2023-05-11T11:10:00.703Z,20.65
2023-05-11T11:12:29.551Z,21.60
2023-05-11T11:14:58.922Z,19.60
2023-05-11T11:17:27.883Z,19.75
2023-05-11T11:19:55.064Z,22.05
2023-05-11T11:22:41.525Z,22.08
2023-05-11T11:25:12.435Z,21.00
2023-05-11T11:27:41.807Z,24.88
2023-05-11T11:30:24.491Z,21.67
2023-05-11T11:32:56.883Z,21.15
2023-05-11T11:35:42.162Z,24.05
2023-05-11T11:38:10.508Z,23.17
2023-05-11T11:43:21.101Z,20.33
2023-05-11T11:45:59.658Z,18.25
2023-05-11T11:48:40.674Z,22.77
2023-05-11T11:51:10.347Z,22.73
2023-05-11T11:53:43.753Z,18.98
2023-05-11T11:56:16.013Z,18.13
2023-05-11T11:58:42.499Z,17.48
2023-05-11T12:01:12.001Z,18.38
2023-05-11T12:03:39.667Z,22.38
2023-05-11T12:06:07.989Z,19.83
2023-05-11T12:08:36.314Z,11.57
2023-05-11T12:11:05.360Z,24.80
2023-05-11T12:13:33.296Z,10.52
2023-05-11T12:16:09.336Z,22.60
2023-05-11T12:18:36.470Z,12.85
2023-05-11T12:21:03.179Z,26.65
2023-05-11T12:23:30.479Z,24.00
2023-05-11T12:26:04.406Z,28.20
2023-05-11T12:28:30.967Z,26.00
2023-05-11T12:30:59.924Z,24.77
2023-05-11T12:33:27.335Z,24.85
2023-05-11T12:35:55.905Z,24.48
2023-05-11T12:38:22.639Z,20.90
2023-05-11T12:40:50.386Z,25.95
2023-05-11T12:43:18.751Z,30.38
2023-05-11T12:45:46.693Z,24.45
2023-05-11T12:48:14.193Z,29.88
2023-05-11T12:50:49.538Z,25.33
2023-05-11T12:53:19.717Z,19.50
2023-05-11T12:55:57.923Z,16.08
2023-05-11T12:58:24.443Z,13.05
2023-05-11T13:00:50.967Z,10.18
2023-05-11T13:03:28.334Z,14.18
2023-05-11T13:06:06.275Z,15.32
2023-05-11T13:08:32.956Z,14.80
2023-05-11T13:11:24.562Z,11.43
2023-05-11T13:13:56.995Z,12.10
2023-05-11T13:16:28.416Z,16.55
2023-05-11T13:19:02.954Z,13.15
2023-05-11T13:21:30.312Z,17.10
2023-05-11T13:23:56.840Z,17.98
2023-05-11T13:26:25.369Z,18.80
2023-05-11T13:29:05.750Z,17.02
2023-05-11T13:31:49.016Z,21.92
2023-05-11T13:34:15.897Z,18.70
2023-05-11T13:36:43.156Z,18.63
2023-05-11T13:39:09.985Z,18.52
2023-05-11T13:41:36.849Z,18.50
2023-05-11T13:44:03.625Z,19.00
2023-05-11T13:46:30.199Z,17.33
2023-05-11T13:48:56.795Z,21.88
2023-05-11T13:51:23.318Z,19.10
2023-05-11T13:53:49.784Z,14.57
2023-05-11T13:56:19.401Z,13.68
2023-05-11T13:58:46.167Z,14.30
2023-05-11T14:01:12.865Z,17.35
2023-05-11T14:03:39.686Z,15.57
2023-05-11T14:06:06.450Z,14.43
2023-05-11T14:08:32.865Z,16.52
2023-05-11T14:10:59.264Z,15.82
2023-05-11T14:13:25.703Z,11.85
2023-05-11T14:15:52.280Z,12.70
2023-05-11T14:18:18.926Z,11.70
2023-05-11T14:20:45.973Z,14.18
2023-05-11T14:23:12.648Z,12.98
2023-05-11T14:25:39.154Z,12.70
2023-05-11T14:28:05.679Z,13.00
2023-05-11T14:30:32.944Z,14.00
2023-05-11T14:32:59.444Z,17.55
2023-05-11T14:35:26.018Z,14.85
2023-05-11T14:37:54.439Z,15.05
2023-05-11T14:40:21.129Z,14.48
2023-05-11T14:42:47.604Z,13.48
2023-05-11T14:45:14.219Z,17.48
2023-05-11T14:47:40.809Z,15.73
2023-05-11T14:50:08.192Z,13.40
2023-05-11T14:52:34.832Z,14.65
2023-05-11T14:55:01.340Z,16.00
2023-05-11T14:57:27.873Z,14.27
2023-05-11T15:00:00.049Z,12.18
2023-05-11T15:02:27.414Z,16.02
2023-05-11T15:04:53.951Z,14.98
2023-05-11T15:28:39.356Z,17.88
2023-05-11T15:31:06.015Z,20.20
2023-05-11T15:33:33.322Z,16.92
2023-05-11T15:35:59.792Z,18.55
2023-05-11T15:38:26.568Z,14.65
2023-05-11T15:40:56.862Z,11.07
2023-05-11T15:43:23.318Z,8.32
2023-05-11T15:45:50.108Z,12.27
2023-05-11T15:48:16.666Z,10.80
2023-05-11T15:50:43.105Z,11.60
2023-05-11T15:53:09.527Z,13.40
2023-05-11T15:55:36.977Z,12.57
2023-05-11T15:58:07.437Z,15.52
2023-05-11T16:00:34.015Z,9.55
2023-05-11T16:03:01.560Z,12.13
2023-05-11T16:05:29.114Z,10.60
2023-05-11T16:07:55.579Z,11.38
2023-05-11T16:10:22.231Z,12.20
2023-05-11T16:12:48.741Z,11.13
2023-05-11T16:15:15.552Z,10.13
2023-05-11T16:17:42.173Z,9.43
2023-05-11T16:20:09.245Z,11.38
2023-05-11T16:22:37.187Z,9.25
2023-05-11T16:25:03.748Z,10.57
2023-05-11T16:27:30.273Z,9.57
2023-05-11T16:29:57.662Z,9.85
2023-05-11T16:32:24.528Z,9.70
2023-05-11T16:34:51.066Z,10.13
2023-05-11T16:37:17.969Z,12.27
2023-05-11T16:39:44.807Z,11.27
2023-05-11T16:42:11.264Z,12.77
2023-05-11T16:44:37.749Z,11.45
2023-05-11T16:47:04.877Z,8.55
2023-05-11T16:49:31.535Z,8.88
2023-05-11T16:51:58.202Z,9.40
2023-05-11T16:54:26.276Z,9.30
2023-05-11T16:56:53.575Z,12.02
2023-05-11T16:59:20.047Z,11.40
2023-05-11T17:01:46.588Z,10.13
2023-05-11T17:04:13.365Z,12.02
2023-05-11T17:06:39.991Z,10.15
2023-05-11T17:09:06.548Z,11.73
2023-05-11T17:11:33.032Z,12.80
2023-05-11T17:13:59.572Z,11.75
2023-05-11T17:16:26.133Z,11.98
2023-05-11T17:18:52.779Z,13.25
2023-05-11T17:21:19.316Z,15.82
2023-05-11T17:23:45.922Z,15.48
2023-05-11T17:26:13.225Z,15.05
2023-05-11T17:28:40.296Z,14.93
2023-05-11T17:31:12.118Z,16.45
2023-05-11T17:33:39.795Z,20.25
2023-05-11T17:36:06.792Z,21.55
2023-05-11T17:38:33.723Z,22.60
2023-05-11T17:41:04.655Z,20.88
2023-05-11T17:43:40.264Z,25.40
2023-05-11T17:46:06.853Z,21.27
2023-05-11T17:48:36.328Z,14.02
2023-05-11T17:51:02.806Z,13.25
2023-05-11T17:53:29.640Z,11.82
2023-05-11T17:55:59.597Z,10.68
2023-05-11T17:58:26.153Z,9.80
2023-05-11T18:00:53.085Z,10.52
2023-05-11T18:03:19.654Z,9.25
2023-05-11T18:05:49.101Z,11.98
2023-05-11T18:08:16.032Z,13.90
2023-05-11T18:10:42.613Z,17.17
2023-05-11T18:13:09.458Z,11.20
2023-05-11T18:15:36.011Z,11.13
2023-05-11T18:18:02.615Z,9.82
2023-05-11T18:20:29.119Z,15.05
2023-05-11T18:22:56.567Z,10.30
2023-05-11T18:25:24.121Z,12.25
2023-05-11T18:27:50.603Z,15.98
2023-05-11T18:30:17.261Z,19.30
2023-05-11T18:32:44.095Z,13.18
2023-05-11T18:35:10.725Z,13.40
2023-05-11T18:37:37.172Z,12.23
2023-05-11T18:40:06.280Z,11.13
2023-05-11T18:42:32.726Z,14.98
2023-05-11T18:45:02.128Z,12.88
2023-05-11T18:47:28.582Z,14.90
2023-05-11T18:49:55.260Z,13.90
2023-05-11T18:52:21.803Z,14.15
2023-05-11T18:54:48.357Z,15.10
2023-05-11T18:57:18.741Z,15.88
2023-05-11T18:59:45.279Z,15.13
2023-05-11T19:02:11.871Z,12.35
2023-05-11T19:04:38.335Z,14.60
2023-05-11T19:07:05.551Z,16.95
2023-05-11T19:09:32.009Z,13.13
2023-05-11T19:11:58.479Z,15.52
2023-05-11T19:14:24.924Z,16.13
2023-05-11T19:16:51.460Z,15.18
2023-05-11T19:19:17.990Z,15.27
2023-05-11T19:21:45.470Z,17.50
2023-05-11T19:24:12.077Z,14.63
2023-05-11T19:26:39.479Z,19.30
2023-05-11T19:29:09.368Z,15.45
2023-05-11T19:31:35.989Z,20.27
2023-05-11T19:34:02.911Z,18.58
2023-05-11T19:36:29.733Z,17.15
2023-05-11T19:38:57.018Z,20.10
2023-05-11T19:41:23.486Z,19.13
2023-05-11T19:43:49.951Z,24.52
2023-05-11T19:46:16.461Z,21.02
2023-05-11T19:48:43.084Z,19.25
2023-05-11T19:51:09.587Z,23.25
2023-05-11T19:53:36.621Z,20.25
2023-05-11T19:56:03.554Z,19.45
2023-05-11T19:58:30.108Z,26.50
2023-05-11T20:00:56.557Z,21.95
2023-05-11T20:03:23.216Z,23.85
2023-05-11T20:05:50.015Z,24.02
2023-05-11T20:08:16.521Z,21.98
2023-05-11T20:10:42.995Z,22.25
2023-05-11T20:13:09.476Z,22.90
2023-05-11T20:15:35.969Z,20.98
2023-05-11T20:18:03.096Z,20.10
2023-05-11T20:20:31.139Z,23.33
2023-05-11T20:22:59.186Z,22.80
2023-05-11T20:25:25.635Z,21.23
2023-05-11T20:27:52.279Z,21.98
2023-05-11T20:30:18.941Z,22.42
2023-05-11T20:35:15.155Z,23.00
2023-05-11T20:37:41.607Z,22.52
2023-05-11T20:40:08.920Z,26.15
2023-05-11T20:42:37.777Z,26.77
2023-05-11T20:45:07.342Z,23.33
2023-05-11T20:47:34.526Z,28.63
2023-05-11T20:50:01.135Z,26.23
2023-05-11T20:52:27.689Z,25.98
2023-05-11T20:54:54.505Z,27.88
2023-05-11T20:57:21.416Z,29.02
2023-05-11T21:02:17.485Z,30.88
2023-05-11T21:04:44.570Z,26.42
2023-05-11T21:07:11.034Z,28.30
2023-05-11T21:09:37.491Z,30.00
2023-05-11T21:12:04.271Z,27.80
2023-05-11T21:14:30.763Z,29.00
2023-05-11T21:16:57.253Z,31.98
2023-05-11T21:19:23.733Z,27.25
2023-05-11T21:21:50.288Z,30.23
2023-05-11T21:24:16.911Z,30.25
2023-05-11T21:26:43.953Z,32.42
2023-05-11T21:29:13.002Z,31.00
2023-05-11T21:31:39.478Z,31.40
2023-05-11T21:34:05.948Z,31.85
2023-05-11T21:36:32.435Z,30.65
2023-05-11T21:38:58.890Z,26.42
2023-05-11T21:41:26.027Z,29.48
2023-05-11T21:43:52.485Z,35.35
2023-05-11T21:46:19.003Z,31.50
2023-05-11T21:48:45.600Z,33.75
2023-05-11T21:51:12.078Z,35.35
2023-05-11T21:53:38.672Z,33.22
2023-05-11T21:56:05.447Z,36.65
2023-05-11T21:58:32.596Z,34.38
2023-05-11T22:00:59.297Z,33.25
2023-05-11T22:03:28.529Z,35.85
2023-05-11T22:05:55.138Z,37.65
2023-05-11T22:08:21.763Z,33.67
2023-05-11T22:10:52.114Z,36.25
2023-05-11T22:13:18.581Z,33.55
2023-05-11T22:15:45.087Z,38.10
2023-05-11T22:18:11.546Z,35.55
2023-05-11T22:20:38.060Z,36.60
2023-05-11T22:23:04.524Z,34.85
2023-05-11T22:25:32.041Z,35.15
2023-05-11T22:27:58.544Z,35.58
2023-05-11T22:30:24.997Z,31.45
2023-05-11T22:32:51.543Z,34.85
2023-05-11T22:35:18.116Z,31.48
2023-05-11T22:37:44.588Z,29.25
2023-05-11T22:40:11.556Z,28.38
2023-05-11T22:42:38.022Z,29.15
2023-05-11T22:45:05.087Z,27.17
2023-05-11T22:47:31.741Z,27.08
2023-05-11T22:49:58.297Z,28.90
2023-05-11T22:52:24.769Z,26.00
2023-05-11T22:54:55.194Z,26.35
2023-05-11T22:57:23.986Z,18.73
2023-05-11T22:59:50.664Z,19.15
2023-05-11T23:02:17.165Z,19.83
2023-05-11T23:04:44.323Z,23.80
2023-05-11T23:07:12.758Z,19.05
2023-05-11T23:09:39.431Z,20.33
2023-05-11T23:12:06.238Z,20.98
2023-05-11T23:14:32.724Z,20.20
2023-05-11T23:16:59.236Z,22.80
2023-05-11T23:19:25.820Z,21.75
2023-05-11T23:21:52.508Z,23.98
2023-05-11T23:24:19.061Z,24.80
2023-05-11T23:26:45.537Z,26.63
2023-05-11T23:29:12.088Z,26.52
2023-05-11T23:31:39.113Z,26.63
2023-05-11T23:34:05.596Z,24.67
2023-05-11T23:36:32.294Z,26.65
2023-05-11T23:38:58.743Z,25.38
2023-05-11T23:41:25.191Z,26.02
2023-05-11T23:43:51.684Z,25.65
2023-05-11T23:46:18.305Z,28.80
2023-05-11T23:48:45.634Z,29.45
2023-05-11T23:51:12.534Z,29.23
2023-05-11T23:53:39.097Z,32.72
2023-05-11T23:56:05.998Z,31.50
2023-05-11T23:58:32.455Z,34.22
